Am Tubarao — A8ZA9 — position and weather

sailwx.info

Track history (hours):
 
Tides and Currents Weather Stations Pressure Air Temp Water Temp Dewpoint Dewpoint Depression Visibility Wind Speed Wind Dir Waves Ship Positions

Am Tubarao

Last reported at 2018-Apr-20 20:09 UTC. Time now 2018-Apr-27 03:04 UTC.
Position N 49°32' W 008°15'.

Length 230 m; draft 9.5 m.

Type: Cargo ship. MMSI: 636015171.

Date/timePositionNaut miles runAvg speedWind from/ knotsBaromVisibWave heightAir tempDewpointWater temp
2018-Apr-20 20:09N 49°32' W 008°15'413.7
2018-Apr-20 19:52N 49°33' W 008°09'513.8
2018-Apr-20 19:30N 49°33' W 008°02'713.5
2018-Apr-20 18:58N 49°35' W 007°51'613.5
2018-Apr-20 18:30N 49°36' W 007°41'713.6
2018-Apr-20 18:00N 49°37' W 007°31'713.6
2018-Apr-20 17:30N 49°38' W 007°21'713.9
2018-Apr-20 17:01N 49°39' W 007°10'713.9
2018-Apr-20 16:30N 49°40' W 006°59'714.3
2018-Apr-20 16:01N 49°42' W 006°49'714.5
2018-Apr-20 15:30N 49°43' W 006°37'714.7
2018-Apr-20 15:00N 49°43' W 006°26'915.0
2018-Apr-20 14:25N 49°43' W 006°12'615.2
2018-Apr-20 14:00N 49°44' W 006°03'815.4
2018-Apr-20 13:30N 49°44' W 005°51'815.2
2018-Apr-20 13:00N 49°44' W 005°39'915.4
2018-Apr-20 12:25N 49°44' W 005°25'715.3
2018-Apr-20 11:56N 49°45' W 005°14'614.4
2018-Apr-20 11:31N 49°50' W 005°08'814.8
2018-Apr-20 11:00N 49°57' W 005°03'712.6
2018-Apr-20 10:25N 50°04' W 005°00'3 5.4
2018-Apr-20 09:55N 50°06' W 005°02'0 0.0
2018-Apr-20 08:07N 50°06' W 005°02'0 0.0
2018-Apr-20 07:58N 50°06' W 005°02'0 0.0
2018-Apr-20 07:22N 50°06' W 005°02'0 0.1
2018-Apr-20 06:55N 50°06' W 005°02'0 0.0
2018-Apr-20 06:25N 50°06' W 005°02'0 0.1
2018-Apr-20 05:58N 50°06' W 005°02'0 0.0
2018-Apr-20 05:28N 50°06' W 005°02'0 0.0
2018-Apr-20 04:58N 50°06' W 005°02'0 0.0
2018-Apr-20 04:19N 50°06' W 005°02'0 0.0
2018-Apr-20 03:58N 50°06' W 005°02'0 0.0
2018-Apr-20 03:25N 50°06' W 005°02'0 0.0
2018-Apr-20 02:58N 50°06' W 005°02'0 0.0
2018-Apr-20 02:25N 50°06' W 005°02'0 0.0
2018-Apr-20 01:58N 50°06' W 005°02'0 0.0
2018-Apr-20 01:25N 50°06' W 005°02'0 0.0
2018-Apr-20 00:58N 50°06' W 005°02'0 0.0
2018-Apr-20 00:28N 50°06' W 005°02'0 0.0
2018-Apr-19 23:58N 50°06' W 005°02'0 0.0
2018-Apr-19 23:16N 50°06' W 005°02'0 0.0
2018-Apr-19 22:58N 50°06' W 005°02'0 0.0
2018-Apr-19 22:28N 50°06' W 005°02'0 0.0
2018-Apr-19 21:55N 50°06' W 005°02'0 0.7
2018-Apr-19 21:31N 50°06' W 005°02'3 5.1
2018-Apr-19 21:00N 50°05' W 004°59'5 9.7
2018-Apr-19 20:30N 50°04' W 004°51'712.5
2018-Apr-19 19:59N 50°03' W 004°41'510.3
2018-Apr-19 19:30N 50°02' W 004°34'1 1.7
2018-Apr-19 19:00N 50°02' W 004°33'5 9.9
2018-Apr-19 18:30N 50°01' W 004°25'713.9
2018-Apr-19 18:00N 50°00' W 004°14'914.1
2018-Apr-19 17:20N 49°59' W 003°60'914.7
2018-Apr-19 16:42N 49°59' W 003°45'415.2
2018-Apr-19 16:27N 49°59' W 003°39'715.9
2018-Apr-19 16:00N 49°58' W 003°28'816.2
2018-Apr-19 15:30N 49°58' W 003°16'816.5
2018-Apr-19 15:00N 49°59' W 003°03'816.5
2018-Apr-19 14:30N 50°01' W 002°51'816.2
2018-Apr-19 14:00N 50°03' W 002°39'815.5
2018-Apr-19 13:30N 50°05' W 002°27'714.8
2018-Apr-19 13:00N 50°07' W 002°16'713.8
2018-Apr-19 12:30N 50°09' W 002°05'612.7
2018-Apr-19 12:00N 50°10' W 001°56'611.9
2018-Apr-19 11:30N 50°12' W 001°47'611.3
2018-Apr-19 11:00N 50°14' W 001°38'511.0
2018-Apr-19 10:30N 50°15' W 001°30'510.3
2018-Apr-19 10:00N 50°16' W 001°22'3 6.8
2018-Apr-19 09:30N 50°17' W 001°17'5 9.2
2018-Apr-19 09:00N 50°18' W 001°10'610.5
2018-Apr-19 08:28N 50°20' W 001°02'912.6
2018-Apr-19 07:43N 50°22' W 000°47'313.9
2018-Apr-19 07:30N 50°23' W 000°43'714.3
2018-Apr-19 07:00N 50°25' W 000°32'815.0
2018-Apr-19 06:30N 50°27' W 000°21'815.2
2018-Apr-19 06:00N 50°29' W 000°09'815.4
2018-Apr-19 05:30N 50°31' E 000°02'815.5
2018-Apr-19 05:00N 50°33' E 000°14'815.3
2018-Apr-19 04:30N 50°35' E 000°26'714.9
2018-Apr-19 04:00N 50°38' E 000°37'714.4
2018-Apr-19 03:30N 50°42' E 000°47'713.8
2018-Apr-19 03:00N 50°45' E 000°56'712.9
2018-Apr-19 02:30N 50°48' E 001°05'612.2
2018-Apr-19 01:59N 50°52' E 001°13'511.5
2018-Apr-19 01:30N 50°56' E 001°19'611.3
2018-Apr-19 01:00N 51°00' E 001°25'612.4
2018-Apr-19 00:30N 51°04' E 001°32'510.4
2018-Apr-19 00:00N 51°06' E 001°40'510.7
2018-Apr-18 23:30N 51°03' E 001°47'510.2
2018-Apr-18 23:00N 51°02' E 001°55'714.9
2018-Apr-18 22:30N 51°03' E 002°06'814.9
2018-Apr-18 22:00N 51°04' E 002°18'1 2.7
2018-Apr-18 21:30N 51°03' E 002°20'0 0.0
2018-Apr-18 21:00N 51°03' E 002°20'1 1.1
2018-Apr-18 20:30N 51°03' E 002°19'0 0.3
2018-Apr-18 19:59N 51°03' E 002°19'0 0.0
2018-Apr-18 19:17N 51°03' E 002°19'0 0.0
2018-Apr-18 18:59N 51°03' E 002°19'0 0.0
2018-Apr-18 18:29N 51°03' E 002°19'0 0.0
2018-Apr-18 17:53N 51°03' E 002°19'0 0.0
2018-Apr-18 16:44N 51°03' E 002°19'0 0.0
2018-Apr-18 16:14N 51°03' E 002°19'0 0.0
2018-Apr-18 15:38N 51°03' E 002°19'0 0.0
2018-Apr-18 15:23N 51°03' E 002°19'0 0.0
2018-Apr-18 14:41N 51°03' E 002°19'0 0.0
2018-Apr-18 14:26N 51°03' E 002°19'0 0.0
2018-Apr-18 12:05N 51°03' E 002°19'0 0.1
2018-Apr-18 11:59N 51°03' E 002°19'0 0.0
2018-Apr-18 11:29N 51°03' E 002°19'0 0.0
2018-Apr-18 10:59N 51°03' E 002°19'0 0.0
2018-Apr-18 10:14N 51°03' E 002°19'0 0.0
2018-Apr-18 09:56N 51°03' E 002°19'0 0.0
2018-Apr-18 09:29N 51°03' E 002°19'0 0.0
2018-Apr-18 08:41N 51°03' E 002°19'0 0.0
2018-Apr-18 08:14N 51°03' E 002°19'0 0.0
2018-Apr-18 07:59N 51°03' E 002°19'0 0.0
2018-Apr-18 07:20N 51°03' E 002°19'0 0.0
2018-Apr-18 06:50N 51°03' E 002°19'0 0.0
2018-Apr-18 06:20N 51°03' E 002°19'0 0.0
2018-Apr-18 05:56N 51°03' E 002°19'0 0.0
2018-Apr-18 05:26N 51°03' E 002°19'0 0.0
2018-Apr-18 04:53N 51°03' E 002°19'0 0.0
2018-Apr-18 04:26N 51°03' E 002°19'0 0.0
2018-Apr-18 03:56N 51°03' E 002°19'0 0.0
2018-Apr-18 03:26N 51°03' E 002°19'0 0.0
2018-Apr-18 02:59N 51°03' E 002°19'0 0.0
2018-Apr-18 02:29N 51°03' E 002°19'0 0.0
2018-Apr-18 01:59N 51°03' E 002°19'0 0.0
2018-Apr-18 01:14N 51°03' E 002°19'0 0.0
2018-Apr-18 00:50N 51°03' E 002°19'0 0.0
2018-Apr-18 00:23N 51°03' E 002°19'0 0.0
2018-Apr-17 23:59N 51°03' E 002°19'0 0.0
2018-Apr-17 23:26N 51°03' E 002°19'0 0.0
2018-Apr-17 22:50N 51°03' E 002°19'0 0.0
2018-Apr-17 22:20N 51°03' E 002°19'0 0.0
2018-Apr-17 21:59N 51°03' E 002°19'0 0.0
2018-Apr-17 21:23N 51°03' E 002°19'0 0.0
2018-Apr-17 20:44N 51°03' E 002°19'0 0.0
2018-Apr-17 20:17N 51°03' E 002°19'0 0.0
2018-Apr-17 19:59N 51°03' E 002°19'0 0.0
2018-Apr-17 19:29N 51°03' E 002°19'0 0.0
2018-Apr-17 18:56N 51°03' E 002°19'0 0.0
2018-Apr-17 18:14N 51°03' E 002°19'0 0.0
2018-Apr-17 17:56N 51°03' E 002°19'0 0.0
2018-Apr-17 17:08N 51°03' E 002°19'0 0.0
2018-Apr-17 16:44N 51°03' E 002°19'0 0.0
2018-Apr-17 14:58N 51°03' E 002°19'0 0.0
2018-Apr-17 14:02N 51°03' E 002°19'0 0.0
2018-Apr-17 13:59N 51°03' E 002°19'0 0.0
2018-Apr-17 13:11N 51°03' E 002°19'0 0.0
2018-Apr-17 12:50N 51°03' E 002°19'0 0.0
2018-Apr-17 11:52N 51°03' E 002°19'0 0.0
2018-Apr-17 11:26N 51°03' E 002°19'0 0.0
2018-Apr-17 10:20N 51°03' E 002°19'0 0.0
2018-Apr-17 09:52N 51°03' E 002°19'0 0.0
2018-Apr-17 07:49N 51°03' E 002°19'0 0.0
2018-Apr-17 07:28N 51°03' E 002°19'0 0.0
2018-Apr-17 06:58N 51°03' E 002°19'0 0.0
2018-Apr-17 06:28N 51°03' E 002°19'0 0.0
2018-Apr-17 05:58N 51°03' E 002°19'0 0.0
2018-Apr-17 05:23N 51°03' E 002°19'0 0.0
2018-Apr-17 04:58N 51°03' E 002°19'0 0.0
2018-Apr-17 04:19N 51°03' E 002°19'0 0.0
2018-Apr-17 03:52N 51°03' E 002°19'0 0.0
2018-Apr-17 03:28N 51°03' E 002°19'0 0.0
2018-Apr-17 01:52N 51°03' E 002°19'0 0.0
2018-Apr-17 01:28N 51°03' E 002°19'0 0.0
2018-Apr-17 00:52N 51°03' E 002°19'0 0.0
2018-Apr-16 23:01N 51°03' E 002°19'0 0.0
2018-Apr-16 22:56N 51°03' E 002°19'0 0.0
2018-Apr-16 22:22N 51°03' E 002°19'0 0.0
2018-Apr-16 21:58N 51°03' E 002°19'0 0.0
2018-Apr-16 21:22N 51°03' E 002°19'0 0.0
2018-Apr-16 20:55N 51°03' E 002°19'0 0.0
2018-Apr-16 20:28N 51°03' E 002°19'0 0.0
2018-Apr-16 19:55N 51°03' E 002°19'0 0.0
2018-Apr-16 19:28N 51°03' E 002°19'0 0.0
2018-Apr-16 18:58N 51°03' E 002°19'0 0.0
2018-Apr-16 18:13N 51°03' E 002°19'0 0.0
2018-Apr-16 17:58N 51°03' E 002°19'0 0.0
2018-Apr-16 17:25N 51°03' E 002°19'0 0.0
2018-Apr-16 16:52N 51°03' E 002°19'0 0.0
2018-Apr-16 16:28N 51°03' E 002°19'0 0.0
2018-Apr-16 15:52N 51°03' E 002°19'0 0.3
2018-Apr-16 15:26N 51°03' E 002°19'1 1.8
2018-Apr-16 15:00N 51°03' E 002°21'0 0.0
2018-Apr-16 14:30N 51°03' E 002°21'1 1.1
2018-Apr-16 14:00N 51°04' E 002°21'4 7.5
2018-Apr-16 13:30N 51°04' E 002°15'4 7.6
2018-Apr-16 13:00N 51°03' E 002°09'4 8.6
2018-Apr-16 12:30N 51°03' E 002°02'611.2
2018-Apr-16 12:00N 51°03' E 001°53'4 7.9
2018-Apr-16 11:30N 51°03' E 001°47'0 0.4
2018-Apr-16 11:00N 51°03' E 001°48'2 4.5
2018-Apr-16 10:30N 51°02' E 001°44'2 4.9
2018-Apr-16 10:00N 51°01' E 001°40'2 4.4
2018-Apr-16 09:30N 51°00' E 001°37'2 3.6
2018-Apr-16 09:00N 50°59' E 001°35'59 6.6
2018-Apr-16 00:05N 50°23' E 000°22'2 9.4
2018-Apr-15 23:50N 50°22' E 000°18'5 9.6
2018-Apr-15 23:17N 50°20' E 000°10'310.0
2018-Apr-15 23:00N 50°20' E 000°06'510.4
2018-Apr-15 22:30N 50°19' W 000°02'611.0
2018-Apr-15 22:00N 50°17' W 000°10'2712.4
2018-Apr-15 19:51N 50°10' W 000°51'413.1
2018-Apr-15 19:30N 50°09' W 000°57'713.1
2018-Apr-15 18:59N 50°07' W 001°08'613.0
2018-Apr-15 18:30N 50°06' W 001°17'612.8
2018-Apr-15 18:00N 50°04' W 001°27'612.4
2018-Apr-15 17:30N 50°03' W 001°36'611.6
2018-Apr-15 17:00N 50°01' W 001°45'510.8
2018-Apr-15 16:30N 49°60' W 001°53'5 9.8
2018-Apr-15 15:57N 49°58' W 002°01'5 8.9
2018-Apr-15 15:25N 49°57' W 002°08'31 8.0
2018-Apr-15 11:34N 49°49' W 002°54'1 8.9
2018-Apr-15 11:30N 49°49' W 002°55'7 9.1
2018-Apr-15 10:45N 49°48' W 003°05'4 9.3
2018-Apr-15 10:17N 49°47' W 003°12'3 9.5
2018-Apr-15 09:56N 49°47' W 003°17'5 9.4
2018-Apr-15 09:27N 49°46' W 003°24'8 9.9
2018-Apr-15 08:41N 49°45' W 003°36'710.6
2018-Apr-15 08:01N 49°44' W 003°47'011.1
2018-Apr-15 08:00N 49°44' W 003°47'  
Track history (hours):
 
Tides and Currents Weather Stations Pressure Air Temp Water Temp Dewpoint Dewpoint Depression Visibility Wind Speed Wind Dir Waves Ship Positions

Am Tubarao

Last reported at 2018-Apr-20 20:09 UTC. Time now 2018-Apr-27 03:04 UTC.
Position N 49°32' W 008°15'.

Length 230 m; draft 9.5 m.

Type: Cargo ship. MMSI: 636015171.

Date/timePositionNaut miles runAvg speedWind from/ knotsBaromVisibWave heightAir tempDewpointWater temp
2018-Apr-20 20:09N 49°32' W 008°15'413.7
2018-Apr-20 19:52N 49°33' W 008°09'513.8
2018-Apr-20 19:30N 49°33' W 008°02'713.5
2018-Apr-20 18:58N 49°35' W 007°51'613.5
2018-Apr-20 18:30N 49°36' W 007°41'713.6
2018-Apr-20 18:00N 49°37' W 007°31'713.6
2018-Apr-20 17:30N 49°38' W 007°21'713.9
2018-Apr-20 17:01N 49°39' W 007°10'713.9
2018-Apr-20 16:30N 49°40' W 006°59'714.3
2018-Apr-20 16:01N 49°42' W 006°49'714.5
2018-Apr-20 15:30N 49°43' W 006°37'714.7
2018-Apr-20 15:00N 49°43' W 006°26'915.0
2018-Apr-20 14:25N 49°43' W 006°12'615.2
2018-Apr-20 14:00N 49°44' W 006°03'815.4
2018-Apr-20 13:30N 49°44' W 005°51'815.2
2018-Apr-20 13:00N 49°44' W 005°39'915.4
2018-Apr-20 12:25N 49°44' W 005°25'715.3
2018-Apr-20 11:56N 49°45' W 005°14'614.4
2018-Apr-20 11:31N 49°50' W 005°08'814.8
2018-Apr-20 11:00N 49°57' W 005°03'712.6
2018-Apr-20 10:25N 50°04' W 005°00'3 5.4
2018-Apr-20 09:55N 50°06' W 005°02'0 0.0
2018-Apr-20 08:07N 50°06' W 005°02'0 0.0
2018-Apr-20 07:58N 50°06' W 005°02'0 0.0
2018-Apr-20 07:22N 50°06' W 005°02'0 0.1
2018-Apr-20 06:55N 50°06' W 005°02'0 0.0
2018-Apr-20 06:25N 50°06' W 005°02'0 0.1
2018-Apr-20 05:58N 50°06' W 005°02'0 0.0
2018-Apr-20 05:28N 50°06' W 005°02'0 0.0
2018-Apr-20 04:58N 50°06' W 005°02'0 0.0
2018-Apr-20 04:19N 50°06' W 005°02'0 0.0
2018-Apr-20 03:58N 50°06' W 005°02'0 0.0
2018-Apr-20 03:25N 50°06' W 005°02'0 0.0
2018-Apr-20 02:58N 50°06' W 005°02'0 0.0
2018-Apr-20 02:25N 50°06' W 005°02'0 0.0
2018-Apr-20 01:58N 50°06' W 005°02'0 0.0
2018-Apr-20 01:25N 50°06' W 005°02'0 0.0
2018-Apr-20 00:58N 50°06' W 005°02'0 0.0
2018-Apr-20 00:28N 50°06' W 005°02'0 0.0
2018-Apr-19 23:58N 50°06' W 005°02'0 0.0
2018-Apr-19 23:16N 50°06' W 005°02'0 0.0
2018-Apr-19 22:58N 50°06' W 005°02'0 0.0
2018-Apr-19 22:28N 50°06' W 005°02'0 0.0
2018-Apr-19 21:55N 50°06' W 005°02'0 0.7
2018-Apr-19 21:31N 50°06' W 005°02'3 5.1
2018-Apr-19 21:00N 50°05' W 004°59'5 9.7
2018-Apr-19 20:30N 50°04' W 004°51'712.5
2018-Apr-19 19:59N 50°03' W 004°41'510.3
2018-Apr-19 19:30N 50°02' W 004°34'1 1.7
2018-Apr-19 19:00N 50°02' W 004°33'5 9.9
2018-Apr-19 18:30N 50°01' W 004°25'713.9
2018-Apr-19 18:00N 50°00' W 004°14'914.1
2018-Apr-19 17:20N 49°59' W 003°60'914.7
2018-Apr-19 16:42N 49°59' W 003°45'415.2
2018-Apr-19 16:27N 49°59' W 003°39'715.9
2018-Apr-19 16:00N 49°58' W 003°28'816.2
2018-Apr-19 15:30N 49°58' W 003°16'816.5
2018-Apr-19 15:00N 49°59' W 003°03'816.5
2018-Apr-19 14:30N 50°01' W 002°51'816.2
2018-Apr-19 14:00N 50°03' W 002°39'815.5
2018-Apr-19 13:30N 50°05' W 002°27'714.8
2018-Apr-19 13:00N 50°07' W 002°16'713.8
2018-Apr-19 12:30N 50°09' W 002°05'612.7
2018-Apr-19 12:00N 50°10' W 001°56'611.9
2018-Apr-19 11:30N 50°12' W 001°47'611.3
2018-Apr-19 11:00N 50°14' W 001°38'511.0
2018-Apr-19 10:30N 50°15' W 001°30'510.3
2018-Apr-19 10:00N 50°16' W 001°22'3 6.8
2018-Apr-19 09:30N 50°17' W 001°17'5 9.2
2018-Apr-19 09:00N 50°18' W 001°10'610.5
2018-Apr-19 08:28N 50°20' W 001°02'912.6
2018-Apr-19 07:43N 50°22' W 000°47'313.9
2018-Apr-19 07:30N 50°23' W 000°43'714.3
2018-Apr-19 07:00N 50°25' W 000°32'815.0
2018-Apr-19 06:30N 50°27' W 000°21'815.2
2018-Apr-19 06:00N 50°29' W 000°09'815.4
2018-Apr-19 05:30N 50°31' E 000°02'815.5
2018-Apr-19 05:00N 50°33' E 000°14'815.3
2018-Apr-19 04:30N 50°35' E 000°26'714.9
2018-Apr-19 04:00N 50°38' E 000°37'714.4
2018-Apr-19 03:30N 50°42' E 000°47'713.8
2018-Apr-19 03:00N 50°45' E 000°56'712.9
2018-Apr-19 02:30N 50°48' E 001°05'612.2
2018-Apr-19 01:59N 50°52' E 001°13'511.5
2018-Apr-19 01:30N 50°56' E 001°19'611.3
2018-Apr-19 01:00N 51°00' E 001°25'612.4
2018-Apr-19 00:30N 51°04' E 001°32'510.4
2018-Apr-19 00:00N 51°06' E 001°40'510.7
2018-Apr-18 23:30N 51°03' E 001°47'510.2
2018-Apr-18 23:00N 51°02' E 001°55'714.9
2018-Apr-18 22:30N 51°03' E 002°06'814.9
2018-Apr-18 22:00N 51°04' E 002°18'1 2.7
2018-Apr-18 21:30N 51°03' E 002°20'0 0.0
2018-Apr-18 21:00N 51°03' E 002°20'1 1.1
2018-Apr-18 20:30N 51°03' E 002°19'0 0.3
2018-Apr-18 19:59N 51°03' E 002°19'0 0.0
2018-Apr-18 19:17N 51°03' E 002°19'0 0.0
2018-Apr-18 18:59N 51°03' E 002°19'0 0.0
2018-Apr-18 18:29N 51°03' E 002°19'0 0.0
2018-Apr-18 17:53N 51°03' E 002°19'0 0.0
2018-Apr-18 16:44N 51°03' E 002°19'0 0.0
2018-Apr-18 16:14N 51°03' E 002°19'0 0.0
2018-Apr-18 15:38N 51°03' E 002°19'0 0.0
2018-Apr-18 15:23N 51°03' E 002°19'0 0.0
2018-Apr-18 14:41N 51°03' E 002°19'0 0.0
2018-Apr-18 14:26N 51°03' E 002°19'0 0.0
2018-Apr-18 12:05N 51°03' E 002°19'0 0.1
2018-Apr-18 11:59N 51°03' E 002°19'0 0.0
2018-Apr-18 11:29N 51°03' E 002°19'0 0.0
2018-Apr-18 10:59N 51°03' E 002°19'0 0.0
2018-Apr-18 10:14N 51°03' E 002°19'0 0.0
2018-Apr-18 09:56N 51°03' E 002°19'0 0.0
2018-Apr-18 09:29N 51°03' E 002°19'0 0.0
2018-Apr-18 08:41N 51°03' E 002°19'0 0.0
2018-Apr-18 08:14N 51°03' E 002°19'0 0.0
2018-Apr-18 07:59N 51°03' E 002°19'0 0.0
2018-Apr-18 07:20N 51°03' E 002°19'0 0.0
2018-Apr-18 06:50N 51°03' E 002°19'0 0.0
2018-Apr-18 06:20N 51°03' E 002°19'0 0.0
2018-Apr-18 05:56N 51°03' E 002°19'0 0.0
2018-Apr-18 05:26N 51°03' E 002°19'0 0.0
2018-Apr-18 04:53N 51°03' E 002°19'0 0.0
2018-Apr-18 04:26N 51°03' E 002°19'0 0.0
2018-Apr-18 03:56N 51°03' E 002°19'0 0.0
2018-Apr-18 03:26N 51°03' E 002°19'0 0.0
2018-Apr-18 02:59N 51°03' E 002°19'0 0.0
2018-Apr-18 02:29N 51°03' E 002°19'0 0.0
2018-Apr-18 01:59N 51°03' E 002°19'0 0.0
2018-Apr-18 01:14N 51°03' E 002°19'0 0.0
2018-Apr-18 00:50N 51°03' E 002°19'0 0.0
2018-Apr-18 00:23N 51°03' E 002°19'0 0.0
2018-Apr-17 23:59N 51°03' E 002°19'0 0.0
2018-Apr-17 23:26N 51°03' E 002°19'0 0.0
2018-Apr-17 22:50N 51°03' E 002°19'0 0.0
2018-Apr-17 22:20N 51°03' E 002°19'0 0.0
2018-Apr-17 21:59N 51°03' E 002°19'0 0.0
2018-Apr-17 21:23N 51°03' E 002°19'0 0.0
2018-Apr-17 20:44N 51°03' E 002°19'0 0.0
2018-Apr-17 20:17N 51°03' E 002°19'0 0.0
2018-Apr-17 19:59N 51°03' E 002°19'0 0.0
2018-Apr-17 19:29N 51°03' E 002°19'0 0.0
2018-Apr-17 18:56N 51°03' E 002°19'0 0.0
2018-Apr-17 18:14N 51°03' E 002°19'0 0.0
2018-Apr-17 17:56N 51°03' E 002°19'0 0.0
2018-Apr-17 17:08N 51°03' E 002°19'0 0.0
2018-Apr-17 16:44N 51°03' E 002°19'0 0.0
2018-Apr-17 14:58N 51°03' E 002°19'0 0.0
2018-Apr-17 14:02N 51°03' E 002°19'0 0.0
2018-Apr-17 13:59N 51°03' E 002°19'0 0.0
2018-Apr-17 13:11N 51°03' E 002°19'0 0.0
2018-Apr-17 12:50N 51°03' E 002°19'0 0.0
2018-Apr-17 11:52N 51°03' E 002°19'0 0.0
2018-Apr-17 11:26N 51°03' E 002°19'0 0.0
2018-Apr-17 10:20N 51°03' E 002°19'0 0.0
2018-Apr-17 09:52N 51°03' E 002°19'0 0.0
2018-Apr-17 07:49N 51°03' E 002°19'0 0.0
2018-Apr-17 07:28N 51°03' E 002°19'0 0.0
2018-Apr-17 06:58N 51°03' E 002°19'0 0.0
2018-Apr-17 06:28N 51°03' E 002°19'0 0.0
2018-Apr-17 05:58N 51°03' E 002°19'0 0.0
2018-Apr-17 05:23N 51°03' E 002°19'0 0.0
2018-Apr-17 04:58N 51°03' E 002°19'0 0.0
2018-Apr-17 04:19N 51°03' E 002°19'0 0.0
2018-Apr-17 03:52N 51°03' E 002°19'0 0.0
2018-Apr-17 03:28N 51°03' E 002°19'0 0.0
2018-Apr-17 01:52N 51°03' E 002°19'0 0.0
2018-Apr-17 01:28N 51°03' E 002°19'0 0.0
2018-Apr-17 00:52N 51°03' E 002°19'0 0.0
2018-Apr-16 23:01N 51°03' E 002°19'0 0.0
2018-Apr-16 22:56N 51°03' E 002°19'0 0.0
2018-Apr-16 22:22N 51°03' E 002°19'0 0.0
2018-Apr-16 21:58N 51°03' E 002°19'0 0.0
2018-Apr-16 21:22N 51°03' E 002°19'0 0.0
2018-Apr-16 20:55N 51°03' E 002°19'0 0.0
2018-Apr-16 20:28N 51°03' E 002°19'0 0.0
2018-Apr-16 19:55N 51°03' E 002°19'0 0.0
2018-Apr-16 19:28N 51°03' E 002°19'0 0.0
2018-Apr-16 18:58N 51°03' E 002°19'0 0.0
2018-Apr-16 18:13N 51°03' E 002°19'0 0.0
2018-Apr-16 17:58N 51°03' E 002°19'0 0.0
2018-Apr-16 17:25N 51°03' E 002°19'0 0.0
2018-Apr-16 16:52N 51°03' E 002°19'0 0.0
2018-Apr-16 16:28N 51°03' E 002°19'0 0.0
2018-Apr-16 15:52N 51°03' E 002°19'0 0.3
2018-Apr-16 15:26N 51°03' E 002°19'1 1.8
2018-Apr-16 15:00N 51°03' E 002°21'0 0.0
2018-Apr-16 14:30N 51°03' E 002°21'1 1.1
2018-Apr-16 14:00N 51°04' E 002°21'4 7.5
2018-Apr-16 13:30N 51°04' E 002°15'4 7.6
2018-Apr-16 13:00N 51°03' E 002°09'4 8.6
2018-Apr-16 12:30N 51°03' E 002°02'611.2
2018-Apr-16 12:00N 51°03' E 001°53'4 7.9
2018-Apr-16 11:30N 51°03' E 001°47'0 0.4
2018-Apr-16 11:00N 51°03' E 001°48'2 4.5
2018-Apr-16 10:30N 51°02' E 001°44'2 4.9
2018-Apr-16 10:00N 51°01' E 001°40'2 4.4
2018-Apr-16 09:30N 51°00' E 001°37'2 3.6
2018-Apr-16 09:00N 50°59' E 001°35'59 6.6
2018-Apr-16 00:05N 50°23' E 000°22'2 9.4
2018-Apr-15 23:50N 50°22' E 000°18'5 9.6
2018-Apr-15 23:17N 50°20' E 000°10'310.0
2018-Apr-15 23:00N 50°20' E 000°06'510.4
2018-Apr-15 22:30N 50°19' W 000°02'611.0
2018-Apr-15 22:00N 50°17' W 000°10'2712.4
2018-Apr-15 19:51N 50°10' W 000°51'413.1
2018-Apr-15 19:30N 50°09' W 000°57'713.1
2018-Apr-15 18:59N 50°07' W 001°08'613.0
2018-Apr-15 18:30N 50°06' W 001°17'612.8
2018-Apr-15 18:00N 50°04' W 001°27'612.4
2018-Apr-15 17:30N 50°03' W 001°36'611.6
2018-Apr-15 17:00N 50°01' W 001°45'510.8
2018-Apr-15 16:30N 49°60' W 001°53'5 9.8
2018-Apr-15 15:57N 49°58' W 002°01'5 8.9
2018-Apr-15 15:25N 49°57' W 002°08'31 8.0
2018-Apr-15 11:34N 49°49' W 002°54'1 8.9
2018-Apr-15 11:30N 49°49' W 002°55'7 9.1
2018-Apr-15 10:45N 49°48' W 003°05'4 9.3
2018-Apr-15 10:17N 49°47' W 003°12'3 9.5
2018-Apr-15 09:56N 49°47' W 003°17'5 9.4
2018-Apr-15 09:27N 49°46' W 003°24'8 9.9
2018-Apr-15 08:41N 49°45' W 003°36'710.6
2018-Apr-15 08:01N 49°44' W 003°47'011.1
2018-Apr-15 08:00N 49°44' W 003°47'  

Dump ship's entire track history